Barfleur — FNIE — position and weather

sailwx.info

Track history (hours):
 
Tides and Currents Weather Stations Pressure Air Temp Water Temp Dewpoint Dewpoint Depression Visibility Wind Speed Wind Dir Waves Ship Positions

Barfleur

Operator: Brittany Ferries

Last reported at 2019-Sep-21 11:00 UTC. Time now 2019-Sep-21 11:19 UTC.
Position N 49°39' W 001°37'.

Length 158 m; draft 5 m.

Type: Ship. MMSI: 227289000.

Date/timePositionNaut miles runAvg speedWind from/ knotsBaromVisibWave heightAir tempDewpointWater temp
2019-Sep-21 11:00N 49°39' W 001°37'0 0.0
2019-Sep-21 10:30N 49°39' W 001°37'0 0.0
2019-Sep-21 10:00N 49°39' W 001°37'0 0.0
2019-Sep-21 09:30N 49°39' W 001°37'0 0.0
2019-Sep-21 09:00N 49°39' W 001°37'0 0.0
2019-Sep-21 08:30N 49°39' W 001°37'0 0.0
2019-Sep-21 08:01N 49°39' W 001°37'0 0.0
2019-Sep-21 07:31N 49°39' W 001°37'0 0.0
2019-Sep-21 07:01N 49°39' W 001°37'0 0.0
2019-Sep-21 06:30N 49°39' W 001°37'0 0.0
2019-Sep-21 06:00N 49°39' W 001°37'0 0.0
2019-Sep-21 05:30N 49°39' W 001°37'0 0.0
2019-Sep-21 05:00N 49°39' W 001°37'3 5.4
2019-Sep-21 04:31N 49°41' W 001°40'1 2.3
2019-Sep-21 04:00N 49°42' W 001°40'1 2.6
2019-Sep-21 03:31N 49°42' W 001°38'1 2.5
2019-Sep-21 03:00N 49°42' W 001°36'1 2.0
2019-Sep-21 02:30N 49°42' W 001°34'1 1.6
2019-Sep-21 02:00N 49°43' W 001°33'1 2.4
2019-Sep-21 01:30N 49°44' W 001°33'612.0
2019-Sep-21 01:00N 49°50' W 001°33'612.2
2019-Sep-21 00:30N 49°56' W 001°36'612.3
2019-Sep-21 00:00N 50°02' W 001°39'612.3
2019-Sep-20 23:30N 50°07' W 001°42'612.2
2019-Sep-20 23:00N 50°13' W 001°45'612.0
2019-Sep-20 22:30N 50°19' W 001°47'611.6
2019-Sep-20 22:00N 50°25' W 001°50'510.7
2019-Sep-20 21:30N 50°30' W 001°51'510.5
2019-Sep-20 21:00N 50°35' W 001°53'510.4
2019-Sep-20 20:30N 50°40' W 001°56'3 6.9
2019-Sep-20 20:00N 50°42' W 001°59'0 0.0
2019-Sep-20 19:30N 50°42' W 001°59'0 0.0
2019-Sep-20 19:00N 50°42' W 001°59'0 0.0
2019-Sep-20 18:30N 50°42' W 001°59'2 4.0
2019-Sep-20 18:00N 50°41' W 001°57'611.9
2019-Sep-20 17:30N 50°36' W 001°53'815.6
2019-Sep-20 17:01N 50°28' W 001°51'815.8
2019-Sep-20 16:30N 50°20' W 001°49'815.8
2019-Sep-20 16:00N 50°12' W 001°48'815.8
2019-Sep-20 15:30N 50°05' W 001°46'815.9
2019-Sep-20 15:00N 49°57' W 001°44'816.1
2019-Sep-20 14:30N 49°49' W 001°42'816.4
2019-Sep-20 14:01N 49°41' W 001°39'3 5.2
2019-Sep-20 13:30N 49°39' W 001°37'0 0.0
2019-Sep-20 13:00N 49°39' W 001°37'0 0.0
2019-Sep-20 12:30N 49°39' W 001°37'0 0.0
2019-Sep-20 12:00N 49°39' W 001°37'3 6.2
2019-Sep-20 11:31N 49°41' W 001°40'917.3
2019-Sep-20 11:00N 49°50' W 001°43'815.9
2019-Sep-20 10:30N 49°57' W 001°41'816.0
2019-Sep-20 10:00N 50°05' W 001°44'816.3
2019-Sep-20 09:30N 50°13' W 001°48'816.3
2019-Sep-20 09:00N 50°21' W 001°49'816.3
2019-Sep-20 08:29N 50°29' W 001°52'816.3
2019-Sep-20 08:00N 50°37' W 001°54'611.3
2019-Sep-20 07:30N 50°42' W 001°58'1 1.7
2019-Sep-20 06:59N 50°42' W 001°59'0 0.0
2019-Sep-20 06:28N 50°42' W 001°59'0 0.0
2019-Sep-20 05:59N 50°42' W 001°59'2 3.6
2019-Sep-20 05:30N 50°42' W 001°57'612.6
2019-Sep-20 05:00N 50°36' W 001°52'714.2
2019-Sep-20 04:30N 50°29' W 001°52'814.2
2019-Sep-20 03:59N 50°22' W 001°51'612.3
2019-Sep-20 03:30N 50°16' W 001°51'612.0
2019-Sep-20 02:59N 50°10' W 001°46'1111.9
2019-Sep-20 02:01N 49°59' W 001°40'111.7
2019-Sep-20 01:58N 49°59' W 001°40'511.8
2019-Sep-20 01:30N 49°53' W 001°39'611.5
2019-Sep-20 01:00N 49°48' W 001°38'5 9.1
2019-Sep-20 00:30N 49°43' W 001°37'0 1.0
2019-Sep-20 00:00N 49°43' W 001°37'0 0.7
2019-Sep-19 23:30N 49°43' W 001°36'0 0.4
2019-Sep-19 23:00N 49°44' W 001°36'0 0.4
2019-Sep-19 22:30N 49°44' W 001°36'0 0.6
2019-Sep-19 22:00N 49°44' W 001°37'0 0.7
2019-Sep-19 21:30N 49°44' W 001°37'0 0.3
2019-Sep-19 21:00N 49°44' W 001°37'2 3.1
2019-Sep-19 20:30N 49°43' W 001°38'4 7.3
2019-Sep-19 20:00N 49°39' W 001°37'0 0.5
2019-Sep-19 19:30N 49°39' W 001°37'0 0.0
2019-Sep-19 18:59N 49°39' W 001°37'0 0.0
2019-Sep-19 18:29N 49°39' W 001°37'0 0.0
2019-Sep-19 17:59N 49°39' W 001°37'0 0.0
2019-Sep-19 17:31N 49°39' W 001°37'1 2.0
2019-Sep-19 17:00N 49°40' W 001°37'612.7
2019-Sep-19 16:31N 49°45' W 001°43'815.5
2019-Sep-19 16:00N 49°53' W 001°45'815.9
2019-Sep-19 15:31N 50°00' W 001°48'817.0
2019-Sep-19 15:01N 50°09' W 001°47'2116.7
2019-Sep-19 13:47N 50°29' W 001°52'516.7
2019-Sep-19 13:30N 50°34' W 001°53'714.7
2019-Sep-19 13:00N 50°41' W 001°57'2 4.9
2019-Sep-19 12:31N 50°42' W 001°59'0 0.0
2019-Sep-19 12:01N 50°42' W 001°59'0 0.0
2019-Sep-19 11:30N 50°42' W 001°59'0 0.1
2019-Sep-19 11:01N 50°42' W 001°59'5 9.5
2019-Sep-19 10:30N 50°39' W 001°55'816.7
2019-Sep-19 10:00N 50°31' W 001°50'2416.6
2019-Sep-19 08:34N 50°07' W 001°44'116.6
2019-Sep-19 08:30N 50°06' W 001°44'816.9
2019-Sep-19 08:01N 49°58' W 001°43'816.8
2019-Sep-19 07:30N 49°50' W 001°42'816.6
2019-Sep-19 07:00N 49°41' W 001°40'3 5.7
2019-Sep-19 06:27N 49°39' W 001°37'0 0.0
2019-Sep-19 05:54N 49°39' W 001°37'0 0.0
2019-Sep-19 05:30N 49°39' W 001°37'0 0.0
2019-Sep-19 05:00N 49°39' W 001°37'4 8.3
2019-Sep-19 04:30N 49°42' W 001°40'2 4.0
2019-Sep-19 04:01N 49°44' W 001°40'2 3.5
2019-Sep-19 03:30N 49°44' W 001°37'4 8.0
2019-Sep-19 03:00N 49°43' W 001°43'2 3.6
2019-Sep-19 02:30N 49°43' W 001°40'2 3.8
2019-Sep-19 02:00N 49°43' W 001°37'2 3.1
2019-Sep-19 01:30N 49°43' W 001°35'1 2.2
2019-Sep-19 01:00N 49°44' W 001°34'611.1
2019-Sep-19 00:30N 49°50' W 001°36'713.1
2019-Sep-19 00:00N 49°56' W 001°40'713.0
2019-Sep-18 23:30N 50°02' W 001°43'612.0
2019-Sep-18 23:00N 50°08' W 001°43'612.2
2019-Sep-18 22:29N 50°14' W 001°43'1213.1
2019-Sep-18 21:33N 50°26' W 001°50'112.5
2019-Sep-18 21:29N 50°27' W 001°50'612.4
2019-Sep-18 21:00N 50°33' W 001°52'611.8
2019-Sep-18 20:30N 50°38' W 001°54'5 9.9
2019-Sep-18 20:00N 50°42' W 001°58'1 1.4
2019-Sep-18 19:30N 50°42' W 001°59'0 0.0
2019-Sep-18 18:58N 50°42' W 001°59'0 0.0
2019-Sep-18 18:28N 50°42' W 001°59'0 0.4
2019-Sep-18 18:00N 50°42' W 001°59'4 8.9
2019-Sep-18 17:30N 50°39' W 001°55'815.8
2019-Sep-18 17:01N 50°31' W 001°51'1716.6
2019-Sep-18 16:01N 50°15' W 001°46'816.6
2019-Sep-18 15:30N 50°07' W 001°44'816.4
2019-Sep-18 15:00N 49°59' W 001°41'816.6
2019-Sep-18 14:31N 49°51' W 001°39'816.5
2019-Sep-18 14:00N 49°43' W 001°36'4 7.6
2019-Sep-18 13:31N 49°39' W 001°37'0 0.0
2019-Sep-18 13:00N 49°39' W 001°37'0 0.0
2019-Sep-18 12:30N 49°39' W 001°37'0 0.0
2019-Sep-18 12:01N 49°39' W 001°37'4 8.3
2019-Sep-18 11:31N 49°43' W 001°36'815.3
2019-Sep-18 11:00N 49°51' W 001°36'815.3
2019-Sep-18 10:30N 49°58' W 001°38'815.2
2019-Sep-18 10:00N 50°06' W 001°41'816.3
2019-Sep-18 09:31N 50°14' W 001°44'1417.2
2019-Sep-18 08:41N 50°27' W 001°50'316.9
2019-Sep-18 08:30N 50°30' W 001°51'816.3
2019-Sep-18 08:00N 50°38' W 001°54'510.4
2019-Sep-18 07:30N 50°42' W 001°59'1 1.0
2019-Sep-18 06:58N 50°42' W 001°59'0 0.0
2019-Sep-18 06:28N 50°42' W 001°59'0 0.0
2019-Sep-18 06:00N 50°42' W 001°59'2 3.6
2019-Sep-18 05:30N 50°41' W 001°57'612.2
2019-Sep-18 05:00N 50°36' W 001°53'714.2
2019-Sep-18 04:30N 50°29' W 001°52'1412.9
2019-Sep-18 03:23N 50°15' W 001°51'411.0
2019-Sep-18 03:00N 50°10' W 001°51'511.1
2019-Sep-18 02:31N 50°05' W 001°50'611.3
2019-Sep-18 02:01N 49°59' W 001°50'611.9
2019-Sep-18 01:31N 49°53' W 001°48'612.0
2019-Sep-18 01:00N 49°47' W 001°47'5 9.1
2019-Sep-18 00:30N 49°43' W 001°45'2 3.0
2019-Sep-18 00:00N 49°43' W 001°43'1 2.1
2019-Sep-17 23:30N 49°43' W 001°41'1 1.3
2019-Sep-17 23:00N 49°43' W 001°40'0 0.6
2019-Sep-17 22:31N 49°43' W 001°40'0 0.2
2019-Sep-17 22:01N 49°43' W 001°40'0 0.6
2019-Sep-17 21:30N 49°43' W 001°41'1 1.0
2019-Sep-17 21:00N 49°43' W 001°41'2 4.2
2019-Sep-17 20:30N 49°41' W 001°40'3 6.8
2019-Sep-17 20:00N 49°39' W 001°37'0 0.0
2019-Sep-17 19:30N 49°39' W 001°37'0 0.0
2019-Sep-17 18:58N 49°39' W 001°37'0 0.0
2019-Sep-17 18:28N 49°39' W 001°37'0 0.0
2019-Sep-17 17:58N 49°39' W 001°37'0 0.0
2019-Sep-17 17:28N 49°39' W 001°37'1 2.0
2019-Sep-17 17:00N 49°40' W 001°37'714.1
2019-Sep-17 16:30N 49°46' W 001°42'815.5
2019-Sep-17 16:00N 49°53' W 001°46'816.6
2019-Sep-17 15:30N 50°02' W 001°47'917.3
2019-Sep-17 15:01N 50°10' W 001°46'1916.6
2019-Sep-17 13:53N 50°29' W 001°49'616.7
2019-Sep-17 13:30N 50°35' W 001°52'714.0
2019-Sep-17 13:00N 50°41' W 001°57'2 4.2
2019-Sep-17 12:31N 50°42' W 001°59'0 0.0
2019-Sep-17 12:00N 50°42' W 001°59'0 0.0
2019-Sep-17 11:30N 50°42' W 001°59'1 1.8
2019-Sep-17 11:00N 50°42' W 001°58'511.1
2019-Sep-17 10:31N 50°37' W 001°54'816.7
2019-Sep-17 10:01N 50°29' W 001°51'816.0
2019-Sep-17 09:29N 50°21' W 001°49'1215.6
2019-Sep-17 08:43N 50°09' W 001°45'515.4
2019-Sep-17 08:24N 50°04' W 001°43'615.9
2019-Sep-17 08:00N 49°58' W 001°42'816.0
2019-Sep-17 07:30N 49°50' W 001°41'815.7
2019-Sep-17 07:00N 49°43' W 001°40'4 8.3
2019-Sep-17 06:30N 49°39' W 001°37'0 0.0
2019-Sep-17 06:00N 49°39' W 001°37'0 0.0
2019-Sep-17 05:30N 49°39' W 001°37'0 0.0
2019-Sep-17 05:00N 49°39' W 001°37'4 8.5
2019-Sep-17 04:30N 49°42' W 001°41'5 9.5
2019-Sep-17 04:00N 49°44' W 001°48'2 3.9
2019-Sep-17 03:30N 49°44' W 001°45'2 3.8
2019-Sep-17 03:00N 49°43' W 001°42'2 3.4
2019-Sep-17 02:30N 49°44' W 001°39'2 3.1
2019-Sep-17 02:00N 49°44' W 001°37'1 2.8
2019-Sep-17 01:30N 49°44' W 001°35'1 2.3
2019-Sep-17 01:00N 49°44' W 001°33'510.8
2019-Sep-17 00:30N 49°50' W 001°35'713.1
2019-Sep-17 00:00N 49°56' W 001°37'713.2
2019-Sep-16 23:30N 50°03' W 001°39'713.1
2019-Sep-16 23:00N 50°09' W 001°41'713.4
2019-Sep-16 22:30N 50°16' W 001°43'713.6
2019-Sep-16 22:00N 50°22' W 001°45'813.0
2019-Sep-16 21:25N 50°30' W 001°47'513.1
2019-Sep-16 21:00N 50°35' W 001°51'611.7
2019-Sep-16 20:30N 50°40' W 001°56'4 7.5
2019-Sep-16 20:00N 50°42' W 001°59'0 0.0
2019-Sep-16 19:30N 50°42' W 001°59'0 0.0
2019-Sep-16 19:00N 50°42' W 001°59'0 0.0
2019-Sep-16 18:30N 50°42' W 001°59'0 0.0
2019-Sep-16 18:00N 50°42' W 001°59'3 5.2
2019-Sep-16 17:30N 50°41' W 001°56'713.9
2019-Sep-16 17:00N 50°34' W 001°53'2716.7
2019-Sep-16 15:25N 50°08' W 001°46'716.6
2019-Sep-16 15:01N 50°01' W 001°44'816.4
2019-Sep-16 14:31N 49°53' W 001°43'816.8
2019-Sep-16 14:01N 49°45' W 001°41'612.8
2019-Sep-16 13:30N 49°39' W 001°37'0 0.1
2019-Sep-16 13:00N 49°39' W 001°37'0 0.0
2019-Sep-16 12:30N 49°39' W 001°37'0 0.0
2019-Sep-16 12:00N 49°39' W 001°37'4 8.5
2019-Sep-16 11:30N 49°43' W 001°36'815.7
2019-Sep-16 11:00N 49°51' W 001°38'815.8
2019-Sep-16 10:30N 49°58' W 001°41'815.3
2019-Sep-16 10:00N 50°06' W 001°43'816.7
2019-Sep-16 09:30N 50°14' W 001°46'1117.1
2019-Sep-16 08:52N 50°25' W 001°49'616.9
2019-Sep-16 08:31N 50°31' W 001°51'815.7
2019-Sep-16 08:01N 50°38' W 001°54'5 9.9
2019-Sep-16 07:31N 50°42' W 001°59'0 0.5
2019-Sep-16 06:55N 50°42' W 001°59'0 0.0
2019-Sep-16 06:29N 50°42' W 001°59'0 0.0
2019-Sep-16 06:00N 50°42' W 001°59'2 3.5
2019-Sep-16 05:30N 50°42' W 001°57'612.3
2019-Sep-16 05:00N 50°36' W 001°53'815.9
2019-Sep-16 04:30N 50°28' W 001°49'816.0
2019-Sep-16 04:00N 50°21' W 001°47'611.4
2019-Sep-16 03:30N 50°15' W 001°47'611.7
2019-Sep-16 02:58N 50°09' W 001°46'511.6
2019-Sep-16 02:30N 50°03' W 001°45'611.7
2019-Sep-16 02:00N 49°58' W 001°43'612.3
2019-Sep-16 01:30N 49°52' W 001°39'612.3
2019-Sep-16 01:00N 49°46' W 001°35'4 8.2
2019-Sep-16 00:30N 49°43' W 001°31'0 0.9
2019-Sep-16 00:00N 49°43' W 001°31'0 0.7
2019-Sep-15 23:30N 49°43' W 001°31'0 0.7
2019-Sep-15 23:00N 49°44' W 001°31'1 1.5
2019-Sep-15 22:30N 49°44' W 001°32'1 1.8
2019-Sep-15 22:00N 49°44' W 001°34'1 2.3
2019-Sep-15 21:30N 49°44' W 001°36'1 2.6
2019-Sep-15 21:00N 49°43' W 001°38'3 5.6
2019-Sep-15 20:30N 49°41' W 001°39'3 5.3
2019-Sep-15 20:00N 49°39' W 001°37'0 0.0
2019-Sep-15 19:30N 49°39' W 001°37'0 0.0
2019-Sep-15 18:59N 49°39' W 001°37'0 0.0
2019-Sep-15 18:29N 49°39' W 001°37'0 0.0
2019-Sep-15 17:59N 49°39' W 001°37'0 0.0
2019-Sep-15 17:30N 49°39' W 001°37'1 1.2
2019-Sep-15 17:01N 49°39' W 001°37'713.9
2019-Sep-15 16:30N 49°46' W 001°40'917.2
2019-Sep-15 16:00N 49°55' W 001°41'816.6
2019-Sep-15 15:30N 50°03' W 001°43'816.1
2019-Sep-15 15:00N 50°11' W 001°46'816.2
2019-Sep-15 14:30N 50°19' W 001°48'816.4
2019-Sep-15 14:00N 50°27' W 001°50'816.7
2019-Sep-15 13:30N 50°35' W 001°52'713.8
2019-Sep-15 13:00N 50°41' W 001°57'2 3.6
2019-Sep-15 12:30N 50°42' W 001°59'0 0.0
2019-Sep-15 11:58N 50°42' W 001°59'0 0.0
2019-Sep-15 11:31N 50°42' W 001°59'2 3.4
2019-Sep-15 11:01N 50°42' W 001°57'612.6
2019-Sep-15 10:30N 50°36' W 001°53'816.8
2019-Sep-15 10:00N 50°28' W 001°49'816.5
2019-Sep-15 09:30N 50°20' W 001°47'816.3
2019-Sep-15 09:00N 50°12' W 001°45'816.8
2019-Sep-15 08:30N 50°03' W 001°45'816.3
2019-Sep-15 08:01N 49°55' W 001°43'815.9
2019-Sep-15 07:30N 49°47' W 001°41'715.0
2019-Sep-15 07:00N 49°40' W 001°38'2 3.1
2019-Sep-15 06:30N 49°39' W 001°37'0 0.0
2019-Sep-15 06:00N 49°39' W 001°37'0 0.0
2019-Sep-15 05:30N 49°39' W 001°37'0 0.0
2019-Sep-15 05:00N 49°39' W 001°37'3 6.5
2019-Sep-15 04:30N 49°41' W 001°40'3 5.3
2019-Sep-15 04:00N 49°43' W 001°43'1 2.1
2019-Sep-15 03:30N 49°43' W 001°41'1 2.6
2019-Sep-15 03:00N 49°43' W 001°39'1 2.9
2019-Sep-15 02:30N 49°44' W 001°37'2 3.0
2019-Sep-15 02:00N 49°44' W 001°35'1 2.9
2019-Sep-15 01:30N 49°45' W 001°33'1 2.8
2019-Sep-15 01:00N 49°45' W 001°31'2 4.6
2019-Sep-15 00:30N 49°47' W 001°29'612.6
2019-Sep-15 00:00N 49°53' W 001°31'713.1
2019-Sep-14 23:30N 49°59' W 001°35'713.5
2019-Sep-14 23:00N 50°05' W 001°40'713.9
2019-Sep-14 22:30N 50°12' W 001°45'713.7
2019-Sep-14 22:00N 50°18' W 001°48'713.2
2019-Sep-14 21:30N 50°25' W 001°50'612.9
2019-Sep-14 21:00N 50°31' W 001°52'611.9
2019-Sep-14 20:30N 50°37' W 001°54'510.8
2019-Sep-14 20:00N 50°42' W 001°57'2 3.4
2019-Sep-14 19:30N 50°42' W 001°59'0 0.0
2019-Sep-14 18:58N 50°42' W 001°59'0 0.0
2019-Sep-14 18:30N 50°42' W 001°59'0 0.0
2019-Sep-14 18:00N 50°42' W 001°59'3 5.2
2019-Sep-14 17:30N 50°41' W 001°56'815.3
2019-Sep-14 17:00N 50°34' W 001°51'916.9
2019-Sep-14 16:30N 50°25' W 001°49'916.9
2019-Sep-14 15:59N 50°17' W 001°47'816.9
2019-Sep-14 15:30N 50°09' W 001°44'816.4
2019-Sep-14 15:00N 50°01' W 001°42'815.4
2019-Sep-14 14:30N 49°53' W 001°42'816.3
2019-Sep-14 14:00N 49°45' W 001°41'713.2
2019-Sep-14 13:31N 49°39' W 001°37'0 0.3
2019-Sep-14 13:01N 49°39' W 001°37'0 0.0
2019-Sep-14 12:31N 49°39' W 001°37'0 0.0
2019-Sep-14 12:01N 49°39' W 001°37'0 0.0
2019-Sep-14 11:30N 49°39' W 001°37'0 0.0
2019-Sep-14 11:00N 49°39' W 001°37'0 0.0
2019-Sep-14 10:31N 49°39' W 001°37'0 0.0
2019-Sep-14 10:01N 49°39' W 001°37'0 0.0
2019-Sep-14 09:30N 49°39' W 001°37'0 0.0
2019-Sep-14 09:00N 49°39' W 001°37'0 0.0
2019-Sep-14 08:31N 49°39' W 001°37'0 0.0
2019-Sep-14 08:00N 49°39' W 001°37'0 0.0
2019-Sep-14 07:31N 49°39' W 001°37'0 0.0
2019-Sep-14 07:01N 49°39' W 001°37'0 0.0
2019-Sep-14 06:30N 49°39' W 001°37'0 0.0
2019-Sep-14 06:00N 49°39' W 001°37'0 0.0
2019-Sep-14 05:31N 49°39' W 001°37'0 0.0
2019-Sep-14 05:01N 49°39' W 001°37'4 8.6
2019-Sep-14 04:30N 49°42' W 001°41'1 2.5
2019-Sep-14 04:00N 49°42' W 001°43'1 2.3
2019-Sep-14 03:30N 49°43' W 001°41'1 3.0
2019-Sep-14 03:00N 49°43' W 001°39'2 3.5
2019-Sep-14 02:30N 49°43' W 001°36'2 3.4
2019-Sep-14 02:00N 49°44' W 001°33'1 2.3
2019-Sep-14 01:30N 49°44' W 001°35'510.0
2019-Sep-14 01:00N 49°49' W 001°38'510.5
2019-Sep-14 00:30N 49°54' W 001°39'611.6
2019-Sep-14 00:00N 49°60' W 001°41'612.0
2019-Sep-13 23:30N 50°06' W 001°42'612.1
2019-Sep-13 23:00N 50°11' W 001°45'1012.4
2019-Sep-13 22:14N 50°20' W 001°51'311.5
2019-Sep-13 22:00N 50°23' W 001°51'611.4
2019-Sep-13 21:30N 50°29' W 001°51'611.4
2019-Sep-13 21:00N 50°34' W 001°52'611.0
2019-Sep-13 20:30N 50°39' W 001°55'4 7.0
2019-Sep-13 19:56N 50°42' W 001°59'0 0.0
2019-Sep-13 19:29N 50°42' W 001°59'0 0.0
2019-Sep-13 18:59N 50°42' W 001°59'0 0.0
2019-Sep-13 18:29N 50°42' W 001°59'0 0.0
2019-Sep-13 18:00N 50°42' W 001°59'2 4.9
2019-Sep-13 17:30N 50°41' W 001°57'815.8
2019-Sep-13 17:00N 50°34' W 001°51'2317.0
2019-Sep-13 15:38N 50°11' W 001°43'216.3
2019-Sep-13 15:31N 50°09' W 001°43'816.1
2019-Sep-13 15:01N 50°01' W 001°44'816.4
2019-Sep-13 14:30N 49°53' W 001°42'816.6
2019-Sep-13 14:01N 49°44' W 001°41'612.1
2019-Sep-13 13:30N 49°39' W 001°37'0 0.2
2019-Sep-13 12:58N 49°39' W 001°37'0 0.0
2019-Sep-13 12:30N 49°39' W 001°37'0 0.0
2019-Sep-13 12:00N 49°39' W 001°37'2 4.6
2019-Sep-13 11:31N 49°40' W 001°39'816.5
2019-Sep-13 11:00N 49°49' W 001°41'816.0
2019-Sep-13 10:31N 49°57' W 001°41'815.8
2019-Sep-13 10:00N 50°04' W 001°43'917.3
2019-Sep-13 09:30N 50°13' W 001°45'917.3
2019-Sep-13 09:00N 50°22' W 001°48'817.0
2019-Sep-13 08:30N 50°30' W 001°51'816.3
2019-Sep-13 08:00N 50°38' W 001°54'510.8
2019-Sep-13 07:30N 50°42' W 001°58'1 1.3
2019-Sep-13 07:00N 50°42' W 001°59'0 0.0
2019-Sep-13 06:30N 50°42' W 001°59'0 0.0
2019-Sep-13 06:01N 50°42' W 001°59'2 3.4
2019-Sep-13 05:30N 50°42' W 001°57'713.5
2019-Sep-13 05:00N 50°35' W 001°53'816.5
2019-Sep-13 04:30N 50°27' W 001°50'2013.1
2019-Sep-13 02:57N 50°08' W 001°44'1212.3
2019-Sep-13 02:00N 49°56' W 001°39'612.6
2019-Sep-13 01:30N 49°50' W 001°36'612.3
2019-Sep-13 01:01N 49°45' W 001°32'3 5.5
2019-Sep-13 00:30N 49°42' W 001°33'0 0.6
2019-Sep-13 00:00N 49°42' W 001°33'0 0.7
2019-Sep-12 23:31N 49°42' W 001°33'0 0.6
2019-Sep-12 23:00N 49°43' W 001°33'0 0.5
2019-Sep-12 22:30N 49°43' W 001°33'0 0.9
2019-Sep-12 22:00N 49°43' W 001°33'1 1.3
2019-Sep-12 21:30N 49°43' W 001°34'1 1.9
2019-Sep-12 21:00N 49°44' W 001°36'4 7.5
2019-Sep-12 20:31N 49°41' W 001°39'2 4.9
2019-Sep-12 20:00N 49°39' W 001°37'0 0.0
2019-Sep-12 19:30N 49°39' W 001°37'0 0.0
2019-Sep-12 19:00N 49°39' W 001°37'0 0.0
2019-Sep-12 18:30N 49°39' W 001°37'0 0.0
2019-Sep-12 18:00N 49°39' W 001°37'0 0.0
2019-Sep-12 17:30N 49°39' W 001°37'0 1.0
2019-Sep-12 17:00N 49°39' W 001°37'713.6
2019-Sep-12 16:31N 49°46' W 001°40'816.7
2019-Sep-12 16:00N 49°54' W 001°41'816.5
2019-Sep-12 15:31N 50°02' W 001°43'816.2
2019-Sep-12 15:01N 50°10' W 001°46'816.2
2019-Sep-12 14:30N 50°18' W 001°48'916.1
2019-Sep-12 13:56N 50°27' W 001°51'716.6
2019-Sep-12 13:31N 50°34' W 001°53'714.8
2019-Sep-12 13:01N 50°41' W 001°57'2 4.2
2019-Sep-12 12:30N 50°42' W 001°59'0 0.0
2019-Sep-12 12:01N 50°42' W 001°59'0 0.0
2019-Sep-12 11:30N 50°42' W 001°59'2 3.3
2019-Sep-12 11:01N 50°42' W 001°57'612.7
2019-Sep-12 10:30N 50°36' W 001°53'1116.6
2019-Sep-12 09:51N 50°25' W 001°48'1716.5
2019-Sep-12 08:48N 50°08' W 001°44'616.8
2019-Sep-12 08:28N 50°03' W 001°44'716.4
2019-Sep-12 08:00N 49°55' W 001°42'815.9
2019-Sep-12 07:31N 49°47' W 001°41'714.8
2019-Sep-12 07:00N 49°40' W 001°39'2 3.7
2019-Sep-12 06:30N 49°39' W 001°37'0 0.0
2019-Sep-12 06:00N 49°39' W 001°37'0 0.0
2019-Sep-12 05:30N 49°39' W 001°37'0 0.0
2019-Sep-12 05:00N 49°39' W 001°37'4 8.2
2019-Sep-12 04:30N 49°42' W 001°40'611.6
2019-Sep-12 04:00N 49°45' W 001°32'0 0.9
2019-Sep-12 03:30N 49°45' W 001°32'1 1.5
2019-Sep-12 03:01N 49°45' W 001°33'1 1.2
2019-Sep-12 02:30N 49°46' W 001°33'1 1.5
2019-Sep-12 02:01N 49°47' W 001°33'4 7.1
2019-Sep-12 01:30N 49°50' W 001°33'611.6
2019-Sep-12 01:01N 49°56' W 001°34'611.7
2019-Sep-12 00:31N 50°02' W 001°36'611.9
2019-Sep-12 00:00N 50°08' W 001°38'611.8
2019-Sep-11 23:30N 50°14' W 001°39'611.7
2019-Sep-11 23:01N 50°19' W 001°42'611.7
2019-Sep-11 22:28N 50°25' W 001°47'611.8
2019-Sep-11 22:00N 50°30' W 001°51'611.2
2019-Sep-11 21:30N 50°35' W 001°53'612.1
2019-Sep-11 21:00N 50°41' W 001°56'3 5.4
2019-Sep-11 20:31N 50°42' W 001°59'0 0.0
2019-Sep-11 20:00N 50°42' W 001°59'0 0.0
2019-Sep-11 19:31N 50°42' W 001°59'0 0.0
2019-Sep-11 19:01N 50°42' W 001°59'1 1.6
2019-Sep-11 18:31N 50°42' W 001°58'510.9
2019-Sep-11 18:00N 50°38' W 001°52'4 8.6
2019-Sep-11 17:30N 50°34' W 001°52'915.7
2019-Sep-11 16:57N 50°25' W 001°49'1616.0
2019-Sep-11 15:57N 50°10' W 001°43'716.6
2019-Sep-11 15:30N 50°03' W 001°44'816.4
2019-Sep-11 15:00N 49°54' W 001°43'816.5
2019-Sep-11 14:30N 49°46' W 001°41'714.3
2019-Sep-11 14:01N 49°40' W 001°37'1 1.7
2019-Sep-11 13:30N 49°39' W 001°37'0 0.0
2019-Sep-11 13:01N 49°39' W 001°37'0 0.0
2019-Sep-11 12:30N 49°39' W 001°37'3 5.3
2019-Sep-11 12:00N 49°41' W 001°39'815.9
2019-Sep-11 11:30N 49°49' W 001°39'816.1
2019-Sep-11 11:00N 49°57' W 001°40'  
Track history (hours):
 
Tides and Currents Weather Stations Pressure Air Temp Water Temp Dewpoint Dewpoint Depression Visibility Wind Speed Wind Dir Waves Ship Positions

Barfleur

Operator: Brittany Ferries

Last reported at 2019-Sep-21 11:00 UTC. Time now 2019-Sep-21 11:19 UTC.
Position N 49°39' W 001°37'.

Length 158 m; draft 5 m.

Type: Ship. MMSI: 227289000.

Date/timePositionNaut miles runAvg speedWind from/ knotsBaromVisibWave heightAir tempDewpointWater temp
2019-Sep-21 11:00N 49°39' W 001°37'0 0.0
2019-Sep-21 10:30N 49°39' W 001°37'0 0.0
2019-Sep-21 10:00N 49°39' W 001°37'0 0.0
2019-Sep-21 09:30N 49°39' W 001°37'0 0.0
2019-Sep-21 09:00N 49°39' W 001°37'0 0.0
2019-Sep-21 08:30N 49°39' W 001°37'0 0.0
2019-Sep-21 08:01N 49°39' W 001°37'0 0.0
2019-Sep-21 07:31N 49°39' W 001°37'0 0.0
2019-Sep-21 07:01N 49°39' W 001°37'0 0.0
2019-Sep-21 06:30N 49°39' W 001°37'0 0.0
2019-Sep-21 06:00N 49°39' W 001°37'0 0.0
2019-Sep-21 05:30N 49°39' W 001°37'0 0.0
2019-Sep-21 05:00N 49°39' W 001°37'3 5.4
2019-Sep-21 04:31N 49°41' W 001°40'1 2.3
2019-Sep-21 04:00N 49°42' W 001°40'1 2.6
2019-Sep-21 03:31N 49°42' W 001°38'1 2.5
2019-Sep-21 03:00N 49°42' W 001°36'1 2.0
2019-Sep-21 02:30N 49°42' W 001°34'1 1.6
2019-Sep-21 02:00N 49°43' W 001°33'1 2.4
2019-Sep-21 01:30N 49°44' W 001°33'612.0
2019-Sep-21 01:00N 49°50' W 001°33'612.2
2019-Sep-21 00:30N 49°56' W 001°36'612.3
2019-Sep-21 00:00N 50°02' W 001°39'612.3
2019-Sep-20 23:30N 50°07' W 001°42'612.2
2019-Sep-20 23:00N 50°13' W 001°45'612.0
2019-Sep-20 22:30N 50°19' W 001°47'611.6
2019-Sep-20 22:00N 50°25' W 001°50'510.7
2019-Sep-20 21:30N 50°30' W 001°51'510.5
2019-Sep-20 21:00N 50°35' W 001°53'510.4
2019-Sep-20 20:30N 50°40' W 001°56'3 6.9
2019-Sep-20 20:00N 50°42' W 001°59'0 0.0
2019-Sep-20 19:30N 50°42' W 001°59'0 0.0
2019-Sep-20 19:00N 50°42' W 001°59'0 0.0
2019-Sep-20 18:30N 50°42' W 001°59'2 4.0
2019-Sep-20 18:00N 50°41' W 001°57'611.9
2019-Sep-20 17:30N 50°36' W 001°53'815.6
2019-Sep-20 17:01N 50°28' W 001°51'815.8
2019-Sep-20 16:30N 50°20' W 001°49'815.8
2019-Sep-20 16:00N 50°12' W 001°48'815.8
2019-Sep-20 15:30N 50°05' W 001°46'815.9
2019-Sep-20 15:00N 49°57' W 001°44'816.1
2019-Sep-20 14:30N 49°49' W 001°42'816.4
2019-Sep-20 14:01N 49°41' W 001°39'3 5.2
2019-Sep-20 13:30N 49°39' W 001°37'0 0.0
2019-Sep-20 13:00N 49°39' W 001°37'0 0.0
2019-Sep-20 12:30N 49°39' W 001°37'0 0.0
2019-Sep-20 12:00N 49°39' W 001°37'3 6.2
2019-Sep-20 11:31N 49°41' W 001°40'917.3
2019-Sep-20 11:00N 49°50' W 001°43'815.9
2019-Sep-20 10:30N 49°57' W 001°41'816.0
2019-Sep-20 10:00N 50°05' W 001°44'816.3
2019-Sep-20 09:30N 50°13' W 001°48'816.3
2019-Sep-20 09:00N 50°21' W 001°49'816.3
2019-Sep-20 08:29N 50°29' W 001°52'816.3
2019-Sep-20 08:00N 50°37' W 001°54'611.3
2019-Sep-20 07:30N 50°42' W 001°58'1 1.7
2019-Sep-20 06:59N 50°42' W 001°59'0 0.0
2019-Sep-20 06:28N 50°42' W 001°59'0 0.0
2019-Sep-20 05:59N 50°42' W 001°59'2 3.6
2019-Sep-20 05:30N 50°42' W 001°57'612.6
2019-Sep-20 05:00N 50°36' W 001°52'714.2
2019-Sep-20 04:30N 50°29' W 001°52'814.2
2019-Sep-20 03:59N 50°22' W 001°51'612.3
2019-Sep-20 03:30N 50°16' W 001°51'612.0
2019-Sep-20 02:59N 50°10' W 001°46'1111.9
2019-Sep-20 02:01N 49°59' W 001°40'111.7
2019-Sep-20 01:58N 49°59' W 001°40'511.8
2019-Sep-20 01:30N 49°53' W 001°39'611.5
2019-Sep-20 01:00N 49°48' W 001°38'5 9.1
2019-Sep-20 00:30N 49°43' W 001°37'0 1.0
2019-Sep-20 00:00N 49°43' W 001°37'0 0.7
2019-Sep-19 23:30N 49°43' W 001°36'0 0.4
2019-Sep-19 23:00N 49°44' W 001°36'0 0.4
2019-Sep-19 22:30N 49°44' W 001°36'0 0.6
2019-Sep-19 22:00N 49°44' W 001°37'0 0.7
2019-Sep-19 21:30N 49°44' W 001°37'0 0.3
2019-Sep-19 21:00N 49°44' W 001°37'2 3.1
2019-Sep-19 20:30N 49°43' W 001°38'4 7.3
2019-Sep-19 20:00N 49°39' W 001°37'0 0.5
2019-Sep-19 19:30N 49°39' W 001°37'0 0.0
2019-Sep-19 18:59N 49°39' W 001°37'0 0.0
2019-Sep-19 18:29N 49°39' W 001°37'0 0.0
2019-Sep-19 17:59N 49°39' W 001°37'0 0.0
2019-Sep-19 17:31N 49°39' W 001°37'1 2.0
2019-Sep-19 17:00N 49°40' W 001°37'612.7
2019-Sep-19 16:31N 49°45' W 001°43'815.5
2019-Sep-19 16:00N 49°53' W 001°45'815.9
2019-Sep-19 15:31N 50°00' W 001°48'817.0
2019-Sep-19 15:01N 50°09' W 001°47'2116.7
2019-Sep-19 13:47N 50°29' W 001°52'516.7
2019-Sep-19 13:30N 50°34' W 001°53'714.7
2019-Sep-19 13:00N 50°41' W 001°57'2 4.9
2019-Sep-19 12:31N 50°42' W 001°59'0 0.0
2019-Sep-19 12:01N 50°42' W 001°59'0 0.0
2019-Sep-19 11:30N 50°42' W 001°59'0 0.1
2019-Sep-19 11:01N 50°42' W 001°59'5 9.5
2019-Sep-19 10:30N 50°39' W 001°55'816.7
2019-Sep-19 10:00N 50°31' W 001°50'2416.6
2019-Sep-19 08:34N 50°07' W 001°44'116.6
2019-Sep-19 08:30N 50°06' W 001°44'816.9
2019-Sep-19 08:01N 49°58' W 001°43'816.8
2019-Sep-19 07:30N 49°50' W 001°42'816.6
2019-Sep-19 07:00N 49°41' W 001°40'3 5.7
2019-Sep-19 06:27N 49°39' W 001°37'0 0.0
2019-Sep-19 05:54N 49°39' W 001°37'0 0.0
2019-Sep-19 05:30N 49°39' W 001°37'0 0.0
2019-Sep-19 05:00N 49°39' W 001°37'4 8.3
2019-Sep-19 04:30N 49°42' W 001°40'2 4.0
2019-Sep-19 04:01N 49°44' W 001°40'2 3.5
2019-Sep-19 03:30N 49°44' W 001°37'4 8.0
2019-Sep-19 03:00N 49°43' W 001°43'2 3.6
2019-Sep-19 02:30N 49°43' W 001°40'2 3.8
2019-Sep-19 02:00N 49°43' W 001°37'2 3.1
2019-Sep-19 01:30N 49°43' W 001°35'1 2.2
2019-Sep-19 01:00N 49°44' W 001°34'611.1
2019-Sep-19 00:30N 49°50' W 001°36'713.1
2019-Sep-19 00:00N 49°56' W 001°40'713.0
2019-Sep-18 23:30N 50°02' W 001°43'612.0
2019-Sep-18 23:00N 50°08' W 001°43'612.2
2019-Sep-18 22:29N 50°14' W 001°43'1213.1
2019-Sep-18 21:33N 50°26' W 001°50'112.5
2019-Sep-18 21:29N 50°27' W 001°50'612.4
2019-Sep-18 21:00N 50°33' W 001°52'611.8
2019-Sep-18 20:30N 50°38' W 001°54'5 9.9
2019-Sep-18 20:00N 50°42' W 001°58'1 1.4
2019-Sep-18 19:30N 50°42' W 001°59'0 0.0
2019-Sep-18 18:58N 50°42' W 001°59'0 0.0
2019-Sep-18 18:28N 50°42' W 001°59'0 0.4
2019-Sep-18 18:00N 50°42' W 001°59'4 8.9
2019-Sep-18 17:30N 50°39' W 001°55'815.8
2019-Sep-18 17:01N 50°31' W 001°51'1716.6
2019-Sep-18 16:01N 50°15' W 001°46'816.6
2019-Sep-18 15:30N 50°07' W 001°44'816.4
2019-Sep-18 15:00N 49°59' W 001°41'816.6
2019-Sep-18 14:31N 49°51' W 001°39'816.5
2019-Sep-18 14:00N 49°43' W 001°36'4 7.6
2019-Sep-18 13:31N 49°39' W 001°37'0 0.0
2019-Sep-18 13:00N 49°39' W 001°37'0 0.0
2019-Sep-18 12:30N 49°39' W 001°37'0 0.0
2019-Sep-18 12:01N 49°39' W 001°37'4 8.3
2019-Sep-18 11:31N 49°43' W 001°36'815.3
2019-Sep-18 11:00N 49°51' W 001°36'815.3
2019-Sep-18 10:30N 49°58' W 001°38'815.2
2019-Sep-18 10:00N 50°06' W 001°41'816.3
2019-Sep-18 09:31N 50°14' W 001°44'1417.2
2019-Sep-18 08:41N 50°27' W 001°50'316.9
2019-Sep-18 08:30N 50°30' W 001°51'816.3
2019-Sep-18 08:00N 50°38' W 001°54'510.4
2019-Sep-18 07:30N 50°42' W 001°59'1 1.0
2019-Sep-18 06:58N 50°42' W 001°59'0 0.0
2019-Sep-18 06:28N 50°42' W 001°59'0 0.0
2019-Sep-18 06:00N 50°42' W 001°59'2 3.6
2019-Sep-18 05:30N 50°41' W 001°57'612.2
2019-Sep-18 05:00N 50°36' W 001°53'714.2
2019-Sep-18 04:30N 50°29' W 001°52'1412.9
2019-Sep-18 03:23N 50°15' W 001°51'411.0
2019-Sep-18 03:00N 50°10' W 001°51'511.1
2019-Sep-18 02:31N 50°05' W 001°50'611.3
2019-Sep-18 02:01N 49°59' W 001°50'611.9
2019-Sep-18 01:31N 49°53' W 001°48'612.0
2019-Sep-18 01:00N 49°47' W 001°47'5 9.1
2019-Sep-18 00:30N 49°43' W 001°45'2 3.0
2019-Sep-18 00:00N 49°43' W 001°43'1 2.1
2019-Sep-17 23:30N 49°43' W 001°41'1 1.3
2019-Sep-17 23:00N 49°43' W 001°40'0 0.6
2019-Sep-17 22:31N 49°43' W 001°40'0 0.2
2019-Sep-17 22:01N 49°43' W 001°40'0 0.6
2019-Sep-17 21:30N 49°43' W 001°41'1 1.0
2019-Sep-17 21:00N 49°43' W 001°41'2 4.2
2019-Sep-17 20:30N 49°41' W 001°40'3 6.8
2019-Sep-17 20:00N 49°39' W 001°37'0 0.0
2019-Sep-17 19:30N 49°39' W 001°37'0 0.0
2019-Sep-17 18:58N 49°39' W 001°37'0 0.0
2019-Sep-17 18:28N 49°39' W 001°37'0 0.0
2019-Sep-17 17:58N 49°39' W 001°37'0 0.0
2019-Sep-17 17:28N 49°39' W 001°37'1 2.0
2019-Sep-17 17:00N 49°40' W 001°37'714.1
2019-Sep-17 16:30N 49°46' W 001°42'815.5
2019-Sep-17 16:00N 49°53' W 001°46'816.6
2019-Sep-17 15:30N 50°02' W 001°47'917.3
2019-Sep-17 15:01N 50°10' W 001°46'1916.6
2019-Sep-17 13:53N 50°29' W 001°49'616.7
2019-Sep-17 13:30N 50°35' W 001°52'714.0
2019-Sep-17 13:00N 50°41' W 001°57'2 4.2
2019-Sep-17 12:31N 50°42' W 001°59'0 0.0
2019-Sep-17 12:00N 50°42' W 001°59'0 0.0
2019-Sep-17 11:30N 50°42' W 001°59'1 1.8
2019-Sep-17 11:00N 50°42' W 001°58'511.1
2019-Sep-17 10:31N 50°37' W 001°54'816.7
2019-Sep-17 10:01N 50°29' W 001°51'816.0
2019-Sep-17 09:29N 50°21' W 001°49'1215.6
2019-Sep-17 08:43N 50°09' W 001°45'515.4
2019-Sep-17 08:24N 50°04' W 001°43'615.9
2019-Sep-17 08:00N 49°58' W 001°42'816.0
2019-Sep-17 07:30N 49°50' W 001°41'815.7
2019-Sep-17 07:00N 49°43' W 001°40'4 8.3
2019-Sep-17 06:30N 49°39' W 001°37'0 0.0
2019-Sep-17 06:00N 49°39' W 001°37'0 0.0
2019-Sep-17 05:30N 49°39' W 001°37'0 0.0
2019-Sep-17 05:00N 49°39' W 001°37'4 8.5
2019-Sep-17 04:30N 49°42' W 001°41'5 9.5
2019-Sep-17 04:00N 49°44' W 001°48'2 3.9
2019-Sep-17 03:30N 49°44' W 001°45'2 3.8
2019-Sep-17 03:00N 49°43' W 001°42'2 3.4
2019-Sep-17 02:30N 49°44' W 001°39'2 3.1
2019-Sep-17 02:00N 49°44' W 001°37'1 2.8
2019-Sep-17 01:30N 49°44' W 001°35'1 2.3
2019-Sep-17 01:00N 49°44' W 001°33'510.8
2019-Sep-17 00:30N 49°50' W 001°35'713.1
2019-Sep-17 00:00N 49°56' W 001°37'713.2
2019-Sep-16 23:30N 50°03' W 001°39'713.1
2019-Sep-16 23:00N 50°09' W 001°41'713.4
2019-Sep-16 22:30N 50°16' W 001°43'713.6
2019-Sep-16 22:00N 50°22' W 001°45'813.0
2019-Sep-16 21:25N 50°30' W 001°47'513.1
2019-Sep-16 21:00N 50°35' W 001°51'611.7
2019-Sep-16 20:30N 50°40' W 001°56'4 7.5
2019-Sep-16 20:00N 50°42' W 001°59'0 0.0
2019-Sep-16 19:30N 50°42' W 001°59'0 0.0
2019-Sep-16 19:00N 50°42' W 001°59'0 0.0
2019-Sep-16 18:30N 50°42' W 001°59'0 0.0
2019-Sep-16 18:00N 50°42' W 001°59'3 5.2
2019-Sep-16 17:30N 50°41' W 001°56'713.9
2019-Sep-16 17:00N 50°34' W 001°53'2716.7
2019-Sep-16 15:25N 50°08' W 001°46'716.6
2019-Sep-16 15:01N 50°01' W 001°44'816.4
2019-Sep-16 14:31N 49°53' W 001°43'816.8
2019-Sep-16 14:01N 49°45' W 001°41'612.8
2019-Sep-16 13:30N 49°39' W 001°37'0 0.1
2019-Sep-16 13:00N 49°39' W 001°37'0 0.0
2019-Sep-16 12:30N 49°39' W 001°37'0 0.0
2019-Sep-16 12:00N 49°39' W 001°37'4 8.5
2019-Sep-16 11:30N 49°43' W 001°36'815.7
2019-Sep-16 11:00N 49°51' W 001°38'815.8
2019-Sep-16 10:30N 49°58' W 001°41'815.3
2019-Sep-16 10:00N 50°06' W 001°43'816.7
2019-Sep-16 09:30N 50°14' W 001°46'1117.1
2019-Sep-16 08:52N 50°25' W 001°49'616.9
2019-Sep-16 08:31N 50°31' W 001°51'815.7
2019-Sep-16 08:01N 50°38' W 001°54'5 9.9
2019-Sep-16 07:31N 50°42' W 001°59'0 0.5
2019-Sep-16 06:55N 50°42' W 001°59'0 0.0
2019-Sep-16 06:29N 50°42' W 001°59'0 0.0
2019-Sep-16 06:00N 50°42' W 001°59'2 3.5
2019-Sep-16 05:30N 50°42' W 001°57'612.3
2019-Sep-16 05:00N 50°36' W 001°53'815.9
2019-Sep-16 04:30N 50°28' W 001°49'816.0
2019-Sep-16 04:00N 50°21' W 001°47'611.4
2019-Sep-16 03:30N 50°15' W 001°47'611.7
2019-Sep-16 02:58N 50°09' W 001°46'511.6
2019-Sep-16 02:30N 50°03' W 001°45'611.7
2019-Sep-16 02:00N 49°58' W 001°43'612.3
2019-Sep-16 01:30N 49°52' W 001°39'612.3
2019-Sep-16 01:00N 49°46' W 001°35'4 8.2
2019-Sep-16 00:30N 49°43' W 001°31'0 0.9
2019-Sep-16 00:00N 49°43' W 001°31'0 0.7
2019-Sep-15 23:30N 49°43' W 001°31'0 0.7
2019-Sep-15 23:00N 49°44' W 001°31'1 1.5
2019-Sep-15 22:30N 49°44' W 001°32'1 1.8
2019-Sep-15 22:00N 49°44' W 001°34'1 2.3
2019-Sep-15 21:30N 49°44' W 001°36'1 2.6
2019-Sep-15 21:00N 49°43' W 001°38'3 5.6
2019-Sep-15 20:30N 49°41' W 001°39'3 5.3
2019-Sep-15 20:00N 49°39' W 001°37'0 0.0
2019-Sep-15 19:30N 49°39' W 001°37'0 0.0
2019-Sep-15 18:59N 49°39' W 001°37'0 0.0
2019-Sep-15 18:29N 49°39' W 001°37'0 0.0
2019-Sep-15 17:59N 49°39' W 001°37'0 0.0
2019-Sep-15 17:30N 49°39' W 001°37'1 1.2
2019-Sep-15 17:01N 49°39' W 001°37'713.9
2019-Sep-15 16:30N 49°46' W 001°40'917.2
2019-Sep-15 16:00N 49°55' W 001°41'816.6
2019-Sep-15 15:30N 50°03' W 001°43'816.1
2019-Sep-15 15:00N 50°11' W 001°46'816.2
2019-Sep-15 14:30N 50°19' W 001°48'816.4
2019-Sep-15 14:00N 50°27' W 001°50'816.7
2019-Sep-15 13:30N 50°35' W 001°52'713.8
2019-Sep-15 13:00N 50°41' W 001°57'2 3.6
2019-Sep-15 12:30N 50°42' W 001°59'0 0.0
2019-Sep-15 11:58N 50°42' W 001°59'0 0.0
2019-Sep-15 11:31N 50°42' W 001°59'2 3.4
2019-Sep-15 11:01N 50°42' W 001°57'612.6
2019-Sep-15 10:30N 50°36' W 001°53'816.8
2019-Sep-15 10:00N 50°28' W 001°49'816.5
2019-Sep-15 09:30N 50°20' W 001°47'816.3
2019-Sep-15 09:00N 50°12' W 001°45'816.8
2019-Sep-15 08:30N 50°03' W 001°45'816.3
2019-Sep-15 08:01N 49°55' W 001°43'815.9
2019-Sep-15 07:30N 49°47' W 001°41'715.0
2019-Sep-15 07:00N 49°40' W 001°38'2 3.1
2019-Sep-15 06:30N 49°39' W 001°37'0 0.0
2019-Sep-15 06:00N 49°39' W 001°37'0 0.0
2019-Sep-15 05:30N 49°39' W 001°37'0 0.0
2019-Sep-15 05:00N 49°39' W 001°37'3 6.5
2019-Sep-15 04:30N 49°41' W 001°40'3 5.3
2019-Sep-15 04:00N 49°43' W 001°43'1 2.1
2019-Sep-15 03:30N 49°43' W 001°41'1 2.6
2019-Sep-15 03:00N 49°43' W 001°39'1 2.9
2019-Sep-15 02:30N 49°44' W 001°37'2 3.0
2019-Sep-15 02:00N 49°44' W 001°35'1 2.9
2019-Sep-15 01:30N 49°45' W 001°33'1 2.8
2019-Sep-15 01:00N 49°45' W 001°31'2 4.6
2019-Sep-15 00:30N 49°47' W 001°29'612.6
2019-Sep-15 00:00N 49°53' W 001°31'713.1
2019-Sep-14 23:30N 49°59' W 001°35'713.5
2019-Sep-14 23:00N 50°05' W 001°40'713.9
2019-Sep-14 22:30N 50°12' W 001°45'713.7
2019-Sep-14 22:00N 50°18' W 001°48'713.2
2019-Sep-14 21:30N 50°25' W 001°50'612.9
2019-Sep-14 21:00N 50°31' W 001°52'611.9
2019-Sep-14 20:30N 50°37' W 001°54'510.8
2019-Sep-14 20:00N 50°42' W 001°57'2 3.4
2019-Sep-14 19:30N 50°42' W 001°59'0 0.0
2019-Sep-14 18:58N 50°42' W 001°59'0 0.0
2019-Sep-14 18:30N 50°42' W 001°59'0 0.0
2019-Sep-14 18:00N 50°42' W 001°59'3 5.2
2019-Sep-14 17:30N 50°41' W 001°56'815.3
2019-Sep-14 17:00N 50°34' W 001°51'916.9
2019-Sep-14 16:30N 50°25' W 001°49'916.9
2019-Sep-14 15:59N 50°17' W 001°47'816.9
2019-Sep-14 15:30N 50°09' W 001°44'816.4
2019-Sep-14 15:00N 50°01' W 001°42'815.4
2019-Sep-14 14:30N 49°53' W 001°42'816.3
2019-Sep-14 14:00N 49°45' W 001°41'713.2
2019-Sep-14 13:31N 49°39' W 001°37'0 0.3
2019-Sep-14 13:01N 49°39' W 001°37'0 0.0
2019-Sep-14 12:31N 49°39' W 001°37'0 0.0
2019-Sep-14 12:01N 49°39' W 001°37'0 0.0
2019-Sep-14 11:30N 49°39' W 001°37'0 0.0
2019-Sep-14 11:00N 49°39' W 001°37'0 0.0
2019-Sep-14 10:31N 49°39' W 001°37'0 0.0
2019-Sep-14 10:01N 49°39' W 001°37'0 0.0
2019-Sep-14 09:30N 49°39' W 001°37'0 0.0
2019-Sep-14 09:00N 49°39' W 001°37'0 0.0
2019-Sep-14 08:31N 49°39' W 001°37'0 0.0
2019-Sep-14 08:00N 49°39' W 001°37'0 0.0
2019-Sep-14 07:31N 49°39' W 001°37'0 0.0
2019-Sep-14 07:01N 49°39' W 001°37'0 0.0
2019-Sep-14 06:30N 49°39' W 001°37'0 0.0
2019-Sep-14 06:00N 49°39' W 001°37'0 0.0
2019-Sep-14 05:31N 49°39' W 001°37'0 0.0
2019-Sep-14 05:01N 49°39' W 001°37'4 8.6
2019-Sep-14 04:30N 49°42' W 001°41'1 2.5
2019-Sep-14 04:00N 49°42' W 001°43'1 2.3
2019-Sep-14 03:30N 49°43' W 001°41'1 3.0
2019-Sep-14 03:00N 49°43' W 001°39'2 3.5
2019-Sep-14 02:30N 49°43' W 001°36'2 3.4
2019-Sep-14 02:00N 49°44' W 001°33'1 2.3
2019-Sep-14 01:30N 49°44' W 001°35'510.0
2019-Sep-14 01:00N 49°49' W 001°38'510.5
2019-Sep-14 00:30N 49°54' W 001°39'611.6
2019-Sep-14 00:00N 49°60' W 001°41'612.0
2019-Sep-13 23:30N 50°06' W 001°42'612.1
2019-Sep-13 23:00N 50°11' W 001°45'1012.4
2019-Sep-13 22:14N 50°20' W 001°51'311.5
2019-Sep-13 22:00N 50°23' W 001°51'611.4
2019-Sep-13 21:30N 50°29' W 001°51'611.4
2019-Sep-13 21:00N 50°34' W 001°52'611.0
2019-Sep-13 20:30N 50°39' W 001°55'4 7.0
2019-Sep-13 19:56N 50°42' W 001°59'0 0.0
2019-Sep-13 19:29N 50°42' W 001°59'0 0.0
2019-Sep-13 18:59N 50°42' W 001°59'0 0.0
2019-Sep-13 18:29N 50°42' W 001°59'0 0.0
2019-Sep-13 18:00N 50°42' W 001°59'2 4.9
2019-Sep-13 17:30N 50°41' W 001°57'815.8
2019-Sep-13 17:00N 50°34' W 001°51'2317.0
2019-Sep-13 15:38N 50°11' W 001°43'216.3
2019-Sep-13 15:31N 50°09' W 001°43'816.1
2019-Sep-13 15:01N 50°01' W 001°44'816.4
2019-Sep-13 14:30N 49°53' W 001°42'816.6
2019-Sep-13 14:01N 49°44' W 001°41'612.1
2019-Sep-13 13:30N 49°39' W 001°37'0 0.2
2019-Sep-13 12:58N 49°39' W 001°37'0 0.0
2019-Sep-13 12:30N 49°39' W 001°37'0 0.0
2019-Sep-13 12:00N 49°39' W 001°37'2 4.6
2019-Sep-13 11:31N 49°40' W 001°39'816.5
2019-Sep-13 11:00N 49°49' W 001°41'816.0
2019-Sep-13 10:31N 49°57' W 001°41'815.8
2019-Sep-13 10:00N 50°04' W 001°43'917.3
2019-Sep-13 09:30N 50°13' W 001°45'917.3
2019-Sep-13 09:00N 50°22' W 001°48'817.0
2019-Sep-13 08:30N 50°30' W 001°51'816.3
2019-Sep-13 08:00N 50°38' W 001°54'510.8
2019-Sep-13 07:30N 50°42' W 001°58'1 1.3
2019-Sep-13 07:00N 50°42' W 001°59'0 0.0
2019-Sep-13 06:30N 50°42' W 001°59'0 0.0
2019-Sep-13 06:01N 50°42' W 001°59'2 3.4
2019-Sep-13 05:30N 50°42' W 001°57'713.5
2019-Sep-13 05:00N 50°35' W 001°53'816.5
2019-Sep-13 04:30N 50°27' W 001°50'2013.1
2019-Sep-13 02:57N 50°08' W 001°44'1212.3
2019-Sep-13 02:00N 49°56' W 001°39'612.6
2019-Sep-13 01:30N 49°50' W 001°36'612.3
2019-Sep-13 01:01N 49°45' W 001°32'3 5.5
2019-Sep-13 00:30N 49°42' W 001°33'0 0.6
2019-Sep-13 00:00N 49°42' W 001°33'0 0.7
2019-Sep-12 23:31N 49°42' W 001°33'0 0.6
2019-Sep-12 23:00N 49°43' W 001°33'0 0.5
2019-Sep-12 22:30N 49°43' W 001°33'0 0.9
2019-Sep-12 22:00N 49°43' W 001°33'1 1.3
2019-Sep-12 21:30N 49°43' W 001°34'1 1.9
2019-Sep-12 21:00N 49°44' W 001°36'4 7.5
2019-Sep-12 20:31N 49°41' W 001°39'2 4.9
2019-Sep-12 20:00N 49°39' W 001°37'0 0.0
2019-Sep-12 19:30N 49°39' W 001°37'0 0.0
2019-Sep-12 19:00N 49°39' W 001°37'0 0.0
2019-Sep-12 18:30N 49°39' W 001°37'0 0.0
2019-Sep-12 18:00N 49°39' W 001°37'0 0.0
2019-Sep-12 17:30N 49°39' W 001°37'0 1.0
2019-Sep-12 17:00N 49°39' W 001°37'713.6
2019-Sep-12 16:31N 49°46' W 001°40'816.7
2019-Sep-12 16:00N 49°54' W 001°41'816.5
2019-Sep-12 15:31N 50°02' W 001°43'816.2
2019-Sep-12 15:01N 50°10' W 001°46'816.2
2019-Sep-12 14:30N 50°18' W 001°48'916.1
2019-Sep-12 13:56N 50°27' W 001°51'716.6
2019-Sep-12 13:31N 50°34' W 001°53'714.8
2019-Sep-12 13:01N 50°41' W 001°57'2 4.2
2019-Sep-12 12:30N 50°42' W 001°59'0 0.0
2019-Sep-12 12:01N 50°42' W 001°59'0 0.0
2019-Sep-12 11:30N 50°42' W 001°59'2 3.3
2019-Sep-12 11:01N 50°42' W 001°57'612.7
2019-Sep-12 10:30N 50°36' W 001°53'1116.6
2019-Sep-12 09:51N 50°25' W 001°48'1716.5
2019-Sep-12 08:48N 50°08' W 001°44'616.8
2019-Sep-12 08:28N 50°03' W 001°44'716.4
2019-Sep-12 08:00N 49°55' W 001°42'815.9
2019-Sep-12 07:31N 49°47' W 001°41'714.8
2019-Sep-12 07:00N 49°40' W 001°39'2 3.7
2019-Sep-12 06:30N 49°39' W 001°37'0 0.0
2019-Sep-12 06:00N 49°39' W 001°37'0 0.0
2019-Sep-12 05:30N 49°39' W 001°37'0 0.0
2019-Sep-12 05:00N 49°39' W 001°37'4 8.2
2019-Sep-12 04:30N 49°42' W 001°40'611.6
2019-Sep-12 04:00N 49°45' W 001°32'0 0.9
2019-Sep-12 03:30N 49°45' W 001°32'1 1.5
2019-Sep-12 03:01N 49°45' W 001°33'1 1.2
2019-Sep-12 02:30N 49°46' W 001°33'1 1.5
2019-Sep-12 02:01N 49°47' W 001°33'4 7.1
2019-Sep-12 01:30N 49°50' W 001°33'611.6
2019-Sep-12 01:01N 49°56' W 001°34'611.7
2019-Sep-12 00:31N 50°02' W 001°36'611.9
2019-Sep-12 00:00N 50°08' W 001°38'611.8
2019-Sep-11 23:30N 50°14' W 001°39'611.7
2019-Sep-11 23:01N 50°19' W 001°42'611.7
2019-Sep-11 22:28N 50°25' W 001°47'611.8
2019-Sep-11 22:00N 50°30' W 001°51'611.2
2019-Sep-11 21:30N 50°35' W 001°53'612.1
2019-Sep-11 21:00N 50°41' W 001°56'3 5.4
2019-Sep-11 20:31N 50°42' W 001°59'0 0.0
2019-Sep-11 20:00N 50°42' W 001°59'0 0.0
2019-Sep-11 19:31N 50°42' W 001°59'0 0.0
2019-Sep-11 19:01N 50°42' W 001°59'1 1.6
2019-Sep-11 18:31N 50°42' W 001°58'510.9
2019-Sep-11 18:00N 50°38' W 001°52'4 8.6
2019-Sep-11 17:30N 50°34' W 001°52'915.7
2019-Sep-11 16:57N 50°25' W 001°49'1616.0
2019-Sep-11 15:57N 50°10' W 001°43'716.6
2019-Sep-11 15:30N 50°03' W 001°44'816.4
2019-Sep-11 15:00N 49°54' W 001°43'816.5
2019-Sep-11 14:30N 49°46' W 001°41'714.3
2019-Sep-11 14:01N 49°40' W 001°37'1 1.7
2019-Sep-11 13:30N 49°39' W 001°37'0 0.0
2019-Sep-11 13:01N 49°39' W 001°37'0 0.0
2019-Sep-11 12:30N 49°39' W 001°37'3 5.3
2019-Sep-11 12:00N 49°41' W 001°39'815.9
2019-Sep-11 11:30N 49°49' W 001°39'816.1
2019-Sep-11 11:00N 49°57' W 001°40'  

Dump ship's entire track history